sensor_id;sensor_type;location;lat;lon;timestamp;temperature;humidity
28023;DHT22;67403;50.104;8.758;2023-04-01T00:02:12;10.40;99.90
28023;DHT22;67403;50.104;8.758;2023-04-01T00:04:40;10.40;99.90
28023;DHT22;67403;50.104;8.758;2023-04-01T00:07:07;10.40;99.90
28023;DHT22;67403;50.104;8.758;2023-04-01T00:09:34;10.40;99.90
28023;DHT22;67403;50.104;8.758;2023-04-01T00:12:01;10.40;99.90
28023;DHT22;67403;50.104;8.758;2023-04-01T00:14:28;10.40;99.90
28023;DHT22;67403;50.104;8.758;2023-04-01T00:16:56;10.40;99.90
28023;DHT22;67403;50.104;8.758;2023-04-01T00:19:22;10.40;99.90
28023;DHT22;67403;50.104;8.758;2023-04-01T00:21:51;10.40;99.90
28023;DHT22;67403;50.104;8.758;2023-04-01T00:24:18;10.40;99.90
28023;DHT22;67403;50.104;8.758;2023-04-01T00:26:45;10.40;99.90
28023;DHT22;67403;50.104;8.758;2023-04-01T00:29:13;10.40;99.90
28023;DHT22;67403;50.104;8.758;2023-04-01T00:31:40;10.40;99.90
28023;DHT22;67403;50.104;8.758;2023-04-01T00:34:07;10.50;99.90
28023;DHT22;67403;50.104;8.758;2023-04-01T00:36:34;10.50;99.90
28023;DHT22;67403;50.104;8.758;2023-04-01T00:39:02;10.50;99.90
28023;DHT22;67403;50.104;8.758;2023-04-01T00:41:29;10.40;99.90
28023;DHT22;67403;50.104;8.758;2023-04-01T00:44:11;10.40;99.90
28023;DHT22;67403;50.104;8.758;2023-04-01T00:46:40;10.40;99.90
28023;DHT22;67403;50.104;8.758;2023-04-01T00:49:07;10.40;99.90
28023;DHT22;67403;50.104;8.758;2023-04-01T00:51:37;10.30;99.90
28023;DHT22;67403;50.104;8.758;2023-04-01T00:54:08;10.40;99.90
28023;DHT22;67403;50.104;8.758;2023-04-01T00:56:38;10.30;99.90
28023;DHT22;67403;50.104;8.758;2023-04-01T00:59:11;10.30;99.90
28023;DHT22;67403;50.104;8.758;2023-04-01T01:01:38;10.30;99.90
28023;DHT22;67403;50.104;8.758;2023-04-01T01:04:05;10.20;99.90
28023;DHT22;67403;50.104;8.758;2023-04-01T01:06:42;10.30;99.90
28023;DHT22;67403;50.104;8.758;2023-04-01T01:09:17;10.30;99.90
28023;DHT22;67403;50.104;8.758;2023-04-01T01:11:51;10.30;99.90
28023;DHT22;67403;50.104;8.758;2023-04-01T01:14:28;10.30;99.90
28023;DHT22;67403;50.104;8.758;2023-04-01T01:17:00;10.30;99.90
28023;DHT22;67403;50.104;8.758;2023-04-01T01:19:57;10.30;99.90
28023;DHT22;67403;50.104;8.758;2023-04-01T01:22:44;10.30;99.90
28023;DHT22;67403;50.104;8.758;2023-04-01T01:25:29;10.30;99.90
28023;DHT22;67403;50.104;8.758;2023-04-01T01:28:06;10.30;99.90
28023;DHT22;67403;50.104;8.758;2023-04-01T01:30:47;10.40;99.90
28023;DHT22;67403;50.104;8.758;2023-04-01T01:33:51;10.40;99.90
28023;DHT22;67403;50.104;8.758;2023-04-01T01:36:27;10.40;99.90
28023;DHT22;67403;50.104;8.758;2023-04-01T01:38:55;10.30;99.90
28023;DHT22;67403;50.104;8.758;2023-04-01T01:41:25;10.40;99.90
28023;DHT22;67403;50.104;8.758;2023-04-01T01:43:53;10.40;99.90
28023;DHT22;67403;50.104;8.758;2023-04-01T01:46:25;10.40;99.90
28023;DHT22;67403;50.104;8.758;2023-04-01T01:48:53;10.40;99.90
28023;DHT22;67403;50.104;8.758;2023-04-01T01:51:23;10.40;99.90
28023;DHT22;67403;50.104;8.758;2023-04-01T01:53:50;10.40;99.90
28023;DHT22;67403;50.104;8.758;2023-04-01T01:56:18;10.30;99.90
28023;DHT22;67403;50.104;8.758;2023-04-01T01:58:49;10.30;99.90
28023;DHT22;67403;50.104;8.758;2023-04-01T02:01:18;10.40;99.90
28023;DHT22;67403;50.104;8.758;2023-04-01T02:03:46;10.30;99.90
28023;DHT22;67403;50.104;8.758;2023-04-01T02:06:15;10.30;99.90
28023;DHT22;67403;50.104;8.758;2023-04-01T02:08:48;10.30;99.90
28023;DHT22;67403;50.104;8.758;2023-04-01T02:11:18;10.30;99.90
28023;DHT22;67403;50.104;8.758;2023-04-01T02:13:50;10.30;99.90
28023;DHT22;67403;50.104;8.758;2023-04-01T02:16:21;10.30;99.90
28023;DHT22;67403;50.104;8.758;2023-04-01T02:18:52;10.30;99.90
28023;DHT22;67403;50.104;8.758;2023-04-01T02:21:22;10.30;99.90
28023;DHT22;67403;50.104;8.758;2023-04-01T02:23:52;10.30;99.90
28023;DHT22;67403;50.104;8.758;2023-04-01T02:26:20;10.30;99.90
28023;DHT22;67403;50.104;8.758;2023-04-01T02:28:48;10.30;99.90
28023;DHT22;67403;50.104;8.758;2023-04-01T02:31:16;10.30;99.90
28023;DHT22;67403;50.104;8.758;2023-04-01T02:33:43;10.30;99.90
28023;DHT22;67403;50.104;8.758;2023-04-01T02:36:12;10.20;99.90
28023;DHT22;67403;50.104;8.758;2023-04-01T02:38:40;10.20;99.90
28023;DHT22;67403;50.104;8.758;2023-04-01T02:41:08;10.20;99.90
28023;DHT22;67403;50.104;8.758;2023-04-01T02:43:35;10.20;99.90
28023;DHT22;67403;50.104;8.758;2023-04-01T02:46:02;10.20;99.90
28023;DHT22;67403;50.104;8.758;2023-04-01T02:48:29;10.20;99.90
28023;DHT22;67403;50.104;8.758;2023-04-01T02:50:56;10.20;99.90
28023;DHT22;67403;50.104;8.758;2023-04-01T02:53:23;10.20;99.90
28023;DHT22;67403;50.104;8.758;2023-04-01T02:55:50;10.20;99.90
28023;DHT22;67403;50.104;8.758;2023-04-01T02:58:19;10.10;99.90
28023;DHT22;67403;50.104;8.758;2023-04-01T03:00:46;10.10;99.90
28023;DHT22;67403;50.104;8.758;2023-04-01T03:03:13;10.10;99.90
28023;DHT22;67403;50.104;8.758;2023-04-01T03:05:40;10.10;99.90
28023;DHT22;67403;50.104;8.758;2023-04-01T03:08:07;10.10;99.90
28023;DHT22;67403;50.104;8.758;2023-04-01T03:10:33;10.10;99.90
28023;DHT22;67403;50.104;8.758;2023-04-01T03:13:00;10.10;99.90
28023;DHT22;67403;50.104;8.758;2023-04-01T03:15:28;10.10;99.90
28023;DHT22;67403;50.104;8.758;2023-04-01T03:17:56;10.10;99.90
28023;DHT22;67403;50.104;8.758;2023-04-01T03:20:22;10.10;99.90
28023;DHT22;67403;50.104;8.758;2023-04-01T03:22:49;10.00;99.90
28023;DHT22;67403;50.104;8.758;2023-04-01T03:25:17;10.10;99.90
28023;DHT22;67403;50.104;8.758;2023-04-01T03:27:44;10.10;99.90
28023;DHT22;67403;50.104;8.758;2023-04-01T03:30:11;10.00;99.90
28023;DHT22;67403;50.104;8.758;2023-04-01T03:32:39;10.10;99.90
28023;DHT22;67403;50.104;8.758;2023-04-01T03:35:07;10.00;99.90
28023;DHT22;67403;50.104;8.758;2023-04-01T03:37:35;10.00;99.90
28023;DHT22;67403;50.104;8.758;2023-04-01T03:40:02;10.00;99.90
28023;DHT22;67403;50.104;8.758;2023-04-01T03:42:29;10.00;99.90
28023;DHT22;67403;50.104;8.758;2023-04-01T03:44:57;10.00;99.90
28023;DHT22;67403;50.104;8.758;2023-04-01T03:47:24;10.00;99.90
28023;DHT22;67403;50.104;8.758;2023-04-01T03:49:53;9.90;99.90
28023;DHT22;67403;50.104;8.758;2023-04-01T03:52:20;9.80;99.90
28023;DHT22;67403;50.104;8.758;2023-04-01T03:54:47;9.80;99.90
28023;DHT22;67403;50.104;8.758;2023-04-01T03:57:14;9.80;99.90
28023;DHT22;67403;50.104;8.758;2023-04-01T03:59:40;9.80;99.90
28023;DHT22;67403;50.104;8.758;2023-04-01T04:02:07;9.80;99.90
28023;DHT22;67403;50.104;8.758;2023-04-01T04:04:34;9.80;99.90
28023;DHT22;67403;50.104;8.758;2023-04-01T04:07:02;9.90;99.90
28023;DHT22;67403;50.104;8.758;2023-04-01T04:09:30;9.90;99.90
28023;DHT22;67403;50.104;8.758;2023-04-01T04:11:57;10.00;99.90
28023;DHT22;67403;50.104;8.758;2023-04-01T04:14:24;9.90;99.90
28023;DHT22;67403;50.104;8.758;2023-04-01T04:16:50;10.00;99.90
28023;DHT22;67403;50.104;8.758;2023-04-01T04:19:17;10.00;99.90
28023;DHT22;67403;50.104;8.758;2023-04-01T04:21:44;10.00;99.90
28023;DHT22;67403;50.104;8.758;2023-04-01T04:24:13;10.00;99.90
28023;DHT22;67403;50.104;8.758;2023-04-01T04:26:39;10.00;99.90
28023;DHT22;67403;50.104;8.758;2023-04-01T04:29:06;10.00;99.90
28023;DHT22;67403;50.104;8.758;2023-04-01T04:31:33;10.10;99.90
28023;DHT22;67403;50.104;8.758;2023-04-01T04:34:00;10.10;99.90
28023;DHT22;67403;50.104;8.758;2023-04-01T04:36:27;10.10;99.90
28023;DHT22;67403;50.104;8.758;2023-04-01T04:38:54;10.10;99.90
28023;DHT22;67403;50.104;8.758;2023-04-01T04:41:22;10.10;99.90
28023;DHT22;67403;50.104;8.758;2023-04-01T04:43:51;10.10;99.90
28023;DHT22;67403;50.104;8.758;2023-04-01T04:46:18;10.10;99.90
28023;DHT22;67403;50.104;8.758;2023-04-01T04:48:45;10.10;99.90
28023;DHT22;67403;50.104;8.758;2023-04-01T04:51:13;10.10;99.90
28023;DHT22;67403;50.104;8.758;2023-04-01T04:53:41;10.10;99.90
28023;DHT22;67403;50.104;8.758;2023-04-01T04:56:08;10.00;99.90
28023;DHT22;67403;50.104;8.758;2023-04-01T04:58:38;10.10;99.90
28023;DHT22;67403;50.104;8.758;2023-04-01T05:01:07;10.10;99.90
28023;DHT22;67403;50.104;8.758;2023-04-01T05:03:34;10.00;99.90
28023;DHT22;67403;50.104;8.758;2023-04-01T05:06:01;10.00;99.90
28023;DHT22;67403;50.104;8.758;2023-04-01T05:08:28;9.90;99.90
28023;DHT22;67403;50.104;8.758;2023-04-01T05:10:55;9.90;99.90
28023;DHT22;67403;50.104;8.758;2023-04-01T05:13:22;10.00;99.90
28023;DHT22;67403;50.104;8.758;2023-04-01T05:15:50;9.90;99.90
28023;DHT22;67403;50.104;8.758;2023-04-01T05:18:17;9.90;99.90
28023;DHT22;67403;50.104;8.758;2023-04-01T05:20:47;9.90;99.90
28023;DHT22;67403;50.104;8.758;2023-04-01T05:23:14;9.90;99.90
28023;DHT22;67403;50.104;8.758;2023-04-01T05:25:42;9.90;99.90
28023;DHT22;67403;50.104;8.758;2023-04-01T05:28:09;9.90;99.90
28023;DHT22;67403;50.104;8.758;2023-04-01T05:30:35;10.00;99.90
28023;DHT22;67403;50.104;8.758;2023-04-01T05:33:04;10.00;99.90
28023;DHT22;67403;50.104;8.758;2023-04-01T05:35:31;10.00;99.90
28023;DHT22;67403;50.104;8.758;2023-04-01T05:37:57;10.00;99.90
28023;DHT22;67403;50.104;8.758;2023-04-01T05:40:25;9.90;99.90
28023;DHT22;67403;50.104;8.758;2023-04-01T05:42:51;9.90;99.90
28023;DHT22;67403;50.104;8.758;2023-04-01T05:45:18;9.90;99.90
28023;DHT22;67403;50.104;8.758;2023-04-01T05:47:45;9.80;99.90
28023;DHT22;67403;50.104;8.758;2023-04-01T05:50:14;9.80;99.90
28023;DHT22;67403;50.104;8.758;2023-04-01T05:52:41;9.70;99.90
28023;DHT22;67403;50.104;8.758;2023-04-01T05:55:09;9.70;99.90
28023;DHT22;67403;50.104;8.758;2023-04-01T05:57:36;9.50;99.90
28023;DHT22;67403;50.104;8.758;2023-04-01T06:00:03;9.50;99.90
28023;DHT22;67403;50.104;8.758;2023-04-01T06:02:30;9.50;99.90
28023;DHT22;67403;50.104;8.758;2023-04-01T06:05:03;9.30;99.90
28023;DHT22;67403;50.104;8.758;2023-04-01T06:07:37;9.30;99.90
28023;DHT22;67403;50.104;8.758;2023-04-01T06:10:12;9.30;99.90
28023;DHT22;67403;50.104;8.758;2023-04-01T06:12:50;9.20;99.90
28023;DHT22;67403;50.104;8.758;2023-04-01T06:15:28;9.20;99.90
28023;DHT22;67403;50.104;8.758;2023-04-01T06:18:10;9.20;99.90
28023;DHT22;67403;50.104;8.758;2023-04-01T06:20:45;9.20;99.90
28023;DHT22;67403;50.104;8.758;2023-04-01T06:23:38;9.20;99.90
28023;DHT22;67403;50.104;8.758;2023-04-01T06:26:15;9.30;99.90
28023;DHT22;67403;50.104;8.758;2023-04-01T06:28:53;9.20;99.90
28023;DHT22;67403;50.104;8.758;2023-04-01T06:31:38;9.30;99.90
28023;DHT22;67403;50.104;8.758;2023-04-01T06:34:25;9.30;99.90
28023;DHT22;67403;50.104;8.758;2023-04-01T06:37:15;9.30;99.90
28023;DHT22;67403;50.104;8.758;2023-04-01T06:40:02;9.30;99.90
28023;DHT22;67403;50.104;8.758;2023-04-01T06:42:43;9.30;99.90
28023;DHT22;67403;50.104;8.758;2023-04-01T06:45:22;9.40;99.90
28023;DHT22;67403;50.104;8.758;2023-04-01T06:48:03;9.40;99.90
28023;DHT22;67403;50.104;8.758;2023-04-01T06:50:38;9.50;99.90
28023;DHT22;67403;50.104;8.758;2023-04-01T06:53:14;9.50;99.90
28023;DHT22;67403;50.104;8.758;2023-04-01T06:55:46;9.50;99.90
28023;DHT22;67403;50.104;8.758;2023-04-01T06:58:20;9.50;99.90
28023;DHT22;67403;50.104;8.758;2023-04-01T07:00:50;9.50;99.90
28023;DHT22;67403;50.104;8.758;2023-04-01T07:03:21;9.50;99.90
28023;DHT22;67403;50.104;8.758;2023-04-01T07:05:49;9.50;99.90
28023;DHT22;67403;50.104;8.758;2023-04-01T07:08:20;9.60;99.90
28023;DHT22;67403;50.104;8.758;2023-04-01T07:10:54;9.60;99.90
28023;DHT22;67403;50.104;8.758;2023-04-01T07:13:27;9.60;99.90
28023;DHT22;67403;50.104;8.758;2023-04-01T07:16:00;9.60;99.90
28023;DHT22;67403;50.104;8.758;2023-04-01T07:18:34;9.70;99.90
28023;DHT22;67403;50.104;8.758;2023-04-01T07:21:04;9.70;99.90
28023;DHT22;67403;50.104;8.758;2023-04-01T07:23:39;9.60;99.90
28023;DHT22;67403;50.104;8.758;2023-04-01T07:26:17;9.60;99.90
28023;DHT22;67403;50.104;8.758;2023-04-01T07:28:45;9.60;99.90
28023;DHT22;67403;50.104;8.758;2023-04-01T07:31:20;9.60;99.90
28023;DHT22;67403;50.104;8.758;2023-04-01T07:33:56;9.60;99.90
28023;DHT22;67403;50.104;8.758;2023-04-01T07:36:32;9.60;99.90
28023;DHT22;67403;50.104;8.758;2023-04-01T07:39:08;9.70;99.90
28023;DHT22;67403;50.104;8.758;2023-04-01T07:41:47;9.80;99.90
28023;DHT22;67403;50.104;8.758;2023-04-01T07:44:24;9.90;99.90
28023;DHT22;67403;50.104;8.758;2023-04-01T07:47:10;10.00;99.90
28023;DHT22;67403;50.104;8.758;2023-04-01T07:49:49;10.10;99.90
28023;DHT22;67403;50.104;8.758;2023-04-01T07:52:22;10.20;99.90
28023;DHT22;67403;50.104;8.758;2023-04-01T07:54:55;10.10;99.90
28023;DHT22;67403;50.104;8.758;2023-04-01T07:57:32;10.00;99.90
28023;DHT22;67403;50.104;8.758;2023-04-01T08:00:09;10.00;99.90
28023;DHT22;67403;50.104;8.758;2023-04-01T08:02:51;10.00;99.90
28023;DHT22;67403;50.104;8.758;2023-04-01T08:05:26;10.00;99.90
28023;DHT22;67403;50.104;8.758;2023-04-01T08:08:00;10.10;99.90
28023;DHT22;67403;50.104;8.758;2023-04-01T08:10:36;10.10;99.90
28023;DHT22;67403;50.104;8.758;2023-04-01T08:13:12;10.10;99.90
28023;DHT22;67403;50.104;8.758;2023-04-01T08:15:47;10.20;99.90
28023;DHT22;67403;50.104;8.758;2023-04-01T08:18:26;10.20;99.90
28023;DHT22;67403;50.104;8.758;2023-04-01T08:20:58;10.40;99.90
28023;DHT22;67403;50.104;8.758;2023-04-01T08:23:28;10.50;99.90
28023;DHT22;67403;50.104;8.758;2023-04-01T08:26:01;10.40;99.90
28023;DHT22;67403;50.104;8.758;2023-04-01T08:28:34;10.40;99.90
28023;DHT22;67403;50.104;8.758;2023-04-01T08:31:05;10.50;99.90
28023;DHT22;67403;50.104;8.758;2023-04-01T08:33:36;10.50;99.90
28023;DHT22;67403;50.104;8.758;2023-04-01T08:36:06;10.40;99.90
28023;DHT22;67403;50.104;8.758;2023-04-01T08:38:39;10.40;99.90
28023;DHT22;67403;50.104;8.758;2023-04-01T08:41:29;10.30;99.90
28023;DHT22;67403;50.104;8.758;2023-04-01T08:44:19;10.30;99.90
28023;DHT22;67403;50.104;8.758;2023-04-01T08:47:01;10.30;99.90
28023;DHT22;67403;50.104;8.758;2023-04-01T08:52:33;10.30;99.90
28023;DHT22;67403;50.104;8.758;2023-04-01T08:55:27;10.20;99.90
28023;DHT22;67403;50.104;8.758;2023-04-01T08:58:18;10.20;99.90
28023;DHT22;67403;50.104;8.758;2023-04-01T09:00:53;10.20;99.90
28023;DHT22;67403;50.104;8.758;2023-04-01T09:03:44;10.30;99.90
28023;DHT22;67403;50.104;8.758;2023-04-01T09:06:26;10.40;99.90
28023;DHT22;67403;50.104;8.758;2023-04-01T09:09:24;10.60;99.90
28023;DHT22;67403;50.104;8.758;2023-04-01T09:12:31;10.50;99.90
28023;DHT22;67403;50.104;8.758;2023-04-01T09:15:26;10.40;99.90
28023;DHT22;67403;50.104;8.758;2023-04-01T09:18:20;10.50;99.90
28023;DHT22;67403;50.104;8.758;2023-04-01T09:21:07;10.50;99.90
28023;DHT22;67403;50.104;8.758;2023-04-01T09:23:53;10.60;99.90
28023;DHT22;67403;50.104;8.758;2023-04-01T09:26:48;10.50;99.90
28023;DHT22;67403;50.104;8.758;2023-04-01T09:29:30;10.50;99.90
28023;DHT22;67403;50.104;8.758;2023-04-01T09:32:15;10.50;99.90
28023;DHT22;67403;50.104;8.758;2023-04-01T09:35:01;10.50;99.90
28023;DHT22;67403;50.104;8.758;2023-04-01T09:37:35;10.40;99.90
28023;DHT22;67403;50.104;8.758;2023-04-01T09:40:15;10.50;99.90
28023;DHT22;67403;50.104;8.758;2023-04-01T09:42:47;10.50;99.90
28023;DHT22;67403;50.104;8.758;2023-04-01T09:45:39;10.60;99.90
28023;DHT22;67403;50.104;8.758;2023-04-01T09:48:20;10.70;99.90
28023;DHT22;67403;50.104;8.758;2023-04-01T09:51:00;10.80;99.90
28023;DHT22;67403;50.104;8.758;2023-04-01T09:53:36;10.80;99.90
28023;DHT22;67403;50.104;8.758;2023-04-01T09:59:41;10.80;99.90
28023;DHT22;67403;50.104;8.758;2023-04-01T10:02:52;10.90;99.90
28023;DHT22;67403;50.104;8.758;2023-04-01T10:05:56;10.90;99.90
28023;DHT22;67403;50.104;8.758;2023-04-01T10:08:57;11.00;99.90
28023;DHT22;67403;50.104;8.758;2023-04-01T10:18:06;11.10;99.90
28023;DHT22;67403;50.104;8.758;2023-04-01T10:20:54;11.20;99.90
28023;DHT22;67403;50.104;8.758;2023-04-01T10:23:50;11.30;99.90
28023;DHT22;67403;50.104;8.758;2023-04-01T10:33:12;11.20;99.90
28023;DHT22;67403;50.104;8.758;2023-04-01T10:36:12;11.40;99.90
28023;DHT22;67403;50.104;8.758;2023-04-01T10:42:22;11.40;99.90
28023;DHT22;67403;50.104;8.758;2023-04-01T10:45:32;11.40;99.90
28023;DHT22;67403;50.104;8.758;2023-04-01T10:48:41;11.20;99.90
28023;DHT22;67403;50.104;8.758;2023-04-01T10:51:16;11.30;99.90
28023;DHT22;67403;50.104;8.758;2023-04-01T10:53:54;11.30;99.90
28023;DHT22;67403;50.104;8.758;2023-04-01T10:59:36;11.30;99.90
28023;DHT22;67403;50.104;8.758;2023-04-01T11:02:42;11.30;99.90
28023;DHT22;67403;50.104;8.758;2023-04-01T11:15:01;11.40;99.90
28023;DHT22;67403;50.104;8.758;2023-04-01T11:17:59;11.60;99.90
28023;DHT22;67403;50.104;8.758;2023-04-01T11:23:23;11.50;99.90
28023;DHT22;67403;50.104;8.758;2023-04-01T11:26:01;11.70;99.90
28023;DHT22;67403;50.104;8.758;2023-04-01T11:29:02;11.80;99.90
28023;DHT22;67403;50.104;8.758;2023-04-01T11:31:40;11.90;99.90
28023;DHT22;67403;50.104;8.758;2023-04-01T11:34:28;12.00;99.90
28023;DHT22;67403;50.104;8.758;2023-04-01T11:37:06;12.00;99.90
28023;DHT22;67403;50.104;8.758;2023-04-01T11:39:41;12.00;99.90
28023;DHT22;67403;50.104;8.758;2023-04-01T11:42:20;11.80;99.90
28023;DHT22;67403;50.104;8.758;2023-04-01T11:44:57;11.90;99.90
28023;DHT22;67403;50.104;8.758;2023-04-01T11:47:45;12.00;99.90
28023;DHT22;67403;50.104;8.758;2023-04-01T11:50:21;12.10;99.90
28023;DHT22;67403;50.104;8.758;2023-04-01T11:55:53;11.90;99.90
28023;DHT22;67403;50.104;8.758;2023-04-01T11:58:33;12.00;99.90
28023;DHT22;67403;50.104;8.758;2023-04-01T12:01:20;11.90;99.90
28023;DHT22;67403;50.104;8.758;2023-04-01T12:04:18;12.00;99.90
28023;DHT22;67403;50.104;8.758;2023-04-01T12:06:57;12.20;99.90
28023;DHT22;67403;50.104;8.758;2023-04-01T12:09:36;12.20;99.90
28023;DHT22;67403;50.104;8.758;2023-04-01T12:12:16;12.30;99.90
28023;DHT22;67403;50.104;8.758;2023-04-01T12:14:53;12.30;99.90
28023;DHT22;67403;50.104;8.758;2023-04-01T12:17:29;12.30;99.90
28023;DHT22;67403;50.104;8.758;2023-04-01T12:20:20;12.30;99.90
28023;DHT22;67403;50.104;8.758;2023-04-01T12:22:57;12.30;99.90
28023;DHT22;67403;50.104;8.758;2023-04-01T12:25:49;12.10;99.90
28023;DHT22;67403;50.104;8.758;2023-04-01T12:28:19;12.00;99.90
28023;DHT22;67403;50.104;8.758;2023-04-01T12:30:57;12.00;99.90
28023;DHT22;67403;50.104;8.758;2023-04-01T12:33:42;12.00;99.90
28023;DHT22;67403;50.104;8.758;2023-04-01T12:36:34;11.90;99.90
28023;DHT22;67403;50.104;8.758;2023-04-01T12:39:28;11.90;99.90
28023;DHT22;67403;50.104;8.758;2023-04-01T12:42:05;11.90;99.90
28023;DHT22;67403;50.104;8.758;2023-04-01T12:44:52;11.80;99.90
28023;DHT22;67403;50.104;8.758;2023-04-01T12:47:43;11.80;99.90
28023;DHT22;67403;50.104;8.758;2023-04-01T12:50:30;11.80;99.90
28023;DHT22;67403;50.104;8.758;2023-04-01T12:53:17;11.70;99.90
28023;DHT22;67403;50.104;8.758;2023-04-01T12:55:50;11.50;99.90
28023;DHT22;67403;50.104;8.758;2023-04-01T12:58:59;11.50;99.90
28023;DHT22;67403;50.104;8.758;2023-04-01T13:01:47;11.60;99.90
28023;DHT22;67403;50.104;8.758;2023-04-01T13:04:37;11.60;99.90
28023;DHT22;67403;50.104;8.758;2023-04-01T13:07:31;11.60;99.90
28023;DHT22;67403;50.104;8.758;2023-04-01T13:10:09;11.50;99.90
28023;DHT22;67403;50.104;8.758;2023-04-01T13:13:00;11.40;99.90
28023;DHT22;67403;50.104;8.758;2023-04-01T13:15:37;11.50;99.90
28023;DHT22;67403;50.104;8.758;2023-04-01T13:18:21;11.60;99.90
28023;DHT22;67403;50.104;8.758;2023-04-01T13:20:58;11.60;99.90
28023;DHT22;67403;50.104;8.758;2023-04-01T13:23:34;11.70;99.90
28023;DHT22;67403;50.104;8.758;2023-04-01T13:26:10;11.90;99.90
28023;DHT22;67403;50.104;8.758;2023-04-01T13:28:41;12.20;99.90
28023;DHT22;67403;50.104;8.758;2023-04-01T13:31:20;12.40;99.90
28023;DHT22;67403;50.104;8.758;2023-04-01T13:34:04;12.60;99.90
28023;DHT22;67403;50.104;8.758;2023-04-01T13:36:38;12.60;99.90
28023;DHT22;67403;50.104;8.758;2023-04-01T13:39:17;12.60;99.90
28023;DHT22;67403;50.104;8.758;2023-04-01T13:42:07;13.10;99.90
28023;DHT22;67403;50.104;8.758;2023-04-01T13:44:42;13.20;99.90
28023;DHT22;67403;50.104;8.758;2023-04-01T13:47:29;13.00;99.90
28023;DHT22;67403;50.104;8.758;2023-04-01T13:50:33;13.20;99.90
28023;DHT22;67403;50.104;8.758;2023-04-01T13:53:15;13.80;99.90
28023;DHT22;67403;50.104;8.758;2023-04-01T13:55:53;14.50;99.90
28023;DHT22;67403;50.104;8.758;2023-04-01T13:58:38;14.80;99.90
28023;DHT22;67403;50.104;8.758;2023-04-01T14:01:10;15.60;99.90
28023;DHT22;67403;50.104;8.758;2023-04-01T14:04:03;16.90;99.90
28023;DHT22;67403;50.104;8.758;2023-04-01T14:06:44;15.70;99.90
28023;DHT22;67403;50.104;8.758;2023-04-01T14:09:29;14.90;99.90
28023;DHT22;67403;50.104;8.758;2023-04-01T14:12:05;14.30;99.90
28023;DHT22;67403;50.104;8.758;2023-04-01T14:14:47;15.60;99.90
28023;DHT22;67403;50.104;8.758;2023-04-01T14:17:35;15.50;99.90
28023;DHT22;67403;50.104;8.758;2023-04-01T14:20:22;14.90;99.90
28023;DHT22;67403;50.104;8.758;2023-04-01T14:23:02;14.30;99.90
28023;DHT22;67403;50.104;8.758;2023-04-01T14:28:36;13.20;99.90
28023;DHT22;67403;50.104;8.758;2023-04-01T14:31:27;12.40;99.90
28023;DHT22;67403;50.104;8.758;2023-04-01T14:34:03;12.10;99.90
28023;DHT22;67403;50.104;8.758;2023-04-01T14:36:50;12.00;99.90
28023;DHT22;67403;50.104;8.758;2023-04-01T14:42:31;11.90;99.90
28023;DHT22;67403;50.104;8.758;2023-04-01T14:45:42;11.70;99.90
28023;DHT22;67403;50.104;8.758;2023-04-01T14:48:21;11.80;99.90
28023;DHT22;67403;50.104;8.758;2023-04-01T14:50:52;11.80;99.90
28023;DHT22;67403;50.104;8.758;2023-04-01T14:53:27;11.70;99.90
28023;DHT22;67403;50.104;8.758;2023-04-01T14:55:56;11.70;99.90
28023;DHT22;67403;50.104;8.758;2023-04-01T14:58:24;11.70;99.90
28023;DHT22;67403;50.104;8.758;2023-04-01T15:01:13;12.10;99.90
28023;DHT22;67403;50.104;8.758;2023-04-01T15:03:53;13.00;99.90
28023;DHT22;67403;50.104;8.758;2023-04-01T15:06:41;13.00;99.90
28023;DHT22;67403;50.104;8.758;2023-04-01T15:09:14;12.90;99.90
28023;DHT22;67403;50.104;8.758;2023-04-01T15:11:52;13.20;99.90
28023;DHT22;67403;50.104;8.758;2023-04-01T15:14:30;13.60;99.90
28023;DHT22;67403;50.104;8.758;2023-04-01T15:17:18;13.60;99.90
28023;DHT22;67403;50.104;8.758;2023-04-01T15:20:02;13.20;99.90
28023;DHT22;67403;50.104;8.758;2023-04-01T15:22:46;12.90;99.90
28023;DHT22;67403;50.104;8.758;2023-04-01T15:25:30;12.80;99.90
28023;DHT22;67403;50.104;8.758;2023-04-01T15:28:07;12.60;99.90
28023;DHT22;67403;50.104;8.758;2023-04-01T15:30:40;12.60;99.90
28023;DHT22;67403;50.104;8.758;2023-04-01T15:33:22;12.70;99.90
28023;DHT22;67403;50.104;8.758;2023-04-01T15:35:56;12.80;99.90
28023;DHT22;67403;50.104;8.758;2023-04-01T15:38:33;12.80;99.90
28023;DHT22;67403;50.104;8.758;2023-04-01T15:41:07;12.50;99.90
28023;DHT22;67403;50.104;8.758;2023-04-01T15:43:41;12.50;99.90
28023;DHT22;67403;50.104;8.758;2023-04-01T15:46:26;12.50;99.90
28023;DHT22;67403;50.104;8.758;2023-04-01T15:49:09;12.40;99.90
28023;DHT22;67403;50.104;8.758;2023-04-01T15:51:56;12.30;99.90
28023;DHT22;67403;50.104;8.758;2023-04-01T15:54:47;12.30;99.90
28023;DHT22;67403;50.104;8.758;2023-04-01T15:57:29;12.40;99.90
28023;DHT22;67403;50.104;8.758;2023-04-01T16:00:27;12.30;99.90
28023;DHT22;67403;50.104;8.758;2023-04-01T16:03:16;12.30;99.90
28023;DHT22;67403;50.104;8.758;2023-04-01T16:05:59;12.00;99.90
28023;DHT22;67403;50.104;8.758;2023-04-01T16:08:45;11.90;99.90
28023;DHT22;67403;50.104;8.758;2023-04-01T16:11:18;11.80;99.90
28023;DHT22;67403;50.104;8.758;2023-04-01T16:13:55;11.80;99.90
28023;DHT22;67403;50.104;8.758;2023-04-01T16:16:35;11.70;99.90
28023;DHT22;67403;50.104;8.758;2023-04-01T16:19:19;11.60;99.90
28023;DHT22;67403;50.104;8.758;2023-04-01T16:21:53;11.50;99.90
28023;DHT22;67403;50.104;8.758;2023-04-01T16:24:33;11.50;99.90
28023;DHT22;67403;50.104;8.758;2023-04-01T16:27:04;11.50;99.90
28023;DHT22;67403;50.104;8.758;2023-04-01T16:29:40;11.50;99.90
28023;DHT22;67403;50.104;8.758;2023-04-01T16:32:18;11.50;99.90
28023;DHT22;67403;50.104;8.758;2023-04-01T16:34:54;11.60;99.90
28023;DHT22;67403;50.104;8.758;2023-04-01T16:37:31;11.60;99.90
28023;DHT22;67403;50.104;8.758;2023-04-01T16:40:11;11.60;99.90
28023;DHT22;67403;50.104;8.758;2023-04-01T16:42:46;11.60;99.90
28023;DHT22;67403;50.104;8.758;2023-04-01T16:45:32;11.60;99.90
28023;DHT22;67403;50.104;8.758;2023-04-01T16:48:07;11.60;99.90
28023;DHT22;67403;50.104;8.758;2023-04-01T16:50:44;11.60;99.90
28023;DHT22;67403;50.104;8.758;2023-04-01T16:53:17;11.70;99.90
28023;DHT22;67403;50.104;8.758;2023-04-01T16:55:50;11.60;99.90
28023;DHT22;67403;50.104;8.758;2023-04-01T16:58:23;11.50;99.90
28023;DHT22;67403;50.104;8.758;2023-04-01T17:00:55;11.60;99.90
28023;DHT22;67403;50.104;8.758;2023-04-01T17:03:28;11.60;99.90
28023;DHT22;67403;50.104;8.758;2023-04-01T17:06:17;11.50;99.90
28023;DHT22;67403;50.104;8.758;2023-04-01T17:09:12;11.50;99.90
28023;DHT22;67403;50.104;8.758;2023-04-01T17:11:45;11.40;99.90
28023;DHT22;67403;50.104;8.758;2023-04-01T17:14:21;11.40;99.90
28023;DHT22;67403;50.104;8.758;2023-04-01T17:16:56;11.40;99.90
28023;DHT22;67403;50.104;8.758;2023-04-01T17:19:47;11.40;99.90